Time;durP1;ratioP1;P1;durP2;ratioP2;P2;SDS_P1;SDS_P2;PMS_P1;PMS_P2;Temp;Humidity;BMP_temperature;BMP_pressure;BME280_temperature;BME280_humidity;BME280_pressure;Samples;Min_cycle;Max_cycle;Signal;HPM_P1;HPM_P2
2021/09/25 00:01:11;;;;;;;10.63;7.83;;;18.30;48.40;;;;;;4972153;28;20448;-88
2021/09/25 00:03:38;;;;;;;11.77;7.00;;;18.20;48.00;;;;;;4972157;28;20456;-88
2021/09/25 00:06:05;;;;;;;10.90;7.40;;;17.90;48.10;;;;;;4972369;28;20463;-88
2021/09/25 00:08:33;;;;;;;12.57;8.00;;;17.50;47.90;;;;;;4972188;28;20515;-88
2021/09/25 00:11:00;;;;;;;11.80;8.50;;;17.20;49.10;;;;;;4972015;28;20493;-88
2021/09/25 00:13:27;;;;;;;11.97;7.83;;;16.90;49.70;;;;;;4972335;28;20478;-88
2021/09/25 00:15:54;;;;;;;12.17;8.80;;;16.90;48.80;;;;;;4972231;28;20554;-88
2021/09/25 00:18:22;;;;;;;17.73;8.57;;;16.50;49.60;;;;;;4972306;28;20799;-88
2021/09/25 00:20:49;;;;;;;11.80;8.23;;;16.40;49.30;;;;;;4971952;28;20463;-88
2021/09/25 00:23:16;;;;;;;10.73;8.37;;;16.10;49.80;;;;;;4971750;28;20535;-88
2021/09/25 00:25:44;;;;;;;12.43;8.40;;;16.00;51.60;;;;;;4971763;28;20505;-88
2021/09/25 00:28:11;;;;;;;15.13;9.00;;;16.20;48.70;;;;;;4971551;28;20499;-88
2021/09/25 00:30:38;;;;;;;16.33;8.10;;;16.20;50.00;;;;;;4972064;28;20482;-88
2021/09/25 00:33:05;;;;;;;11.43;8.20;;;16.00;50.90;;;;;;4971476;28;20466;-88
2021/09/25 00:35:32;;;;;;;12.40;8.80;;;16.10;52.40;;;;;;4972483;28;20460;-88
2021/09/25 00:37:59;;;;;;;10.70;7.83;;;16.30;50.60;;;;;;4974980;28;20491;-88
2021/09/25 00:40:26;;;;;;;13.93;8.47;;;16.60;52.40;;;;;;4975700;28;20474;-88
2021/09/25 00:42:54;;;;;;;14.50;7.53;;;16.90;50.30;;;;;;4975142;28;20553;-87
2021/09/25 00:45:22;;;;;;;15.53;7.37;;;17.30;51.80;;;;;;4975459;28;20549;-87
2021/09/25 00:47:49;;;;;;;9.50;7.30;;;17.50;50.10;;;;;;4975771;28;20470;-88
2021/09/25 00:50:17;;;;;;;17.60;6.87;;;17.60;49.70;;;;;;4975048;28;20573;-88
2021/09/25 00:52:44;;;;;;;14.17;8.50;;;17.20;48.50;;;;;;4975257;28;20479;-88
2021/09/25 00:55:12;;;;;;;12.53;9.20;;;17.20;49.90;;;;;;4979548;28;20467;-88
2021/09/25 00:57:39;;;;;;;9.07;6.80;;;17.10;49.00;;;;;;4983408;28;20494;-88
2021/09/25 01:00:09;;;;;;;24.60;7.70;;;17.10;50.40;;;;;;4983653;28;20451;-88
2021/09/25 01:02:36;;;;;;;10.67;7.70;;;17.20;49.80;;;;;;4984080;28;20536;-88
2021/09/25 01:05:04;;;;;;;12.60;6.57;;;17.30;48.10;;;;;;4978749;28;20466;-88
2021/09/25 01:07:31;;;;;;;15.10;7.80;;;17.40;49.60;;;;;;4975804;28;20484;-88
2021/09/25 01:09:58;;;;;;;8.80;6.83;;;17.60;49.50;;;;;;4975278;28;20483;-88
2021/09/25 01:12:25;;;;;;;12.23;8.13;;;17.80;49.60;;;;;;4975126;28;20499;-88
2021/09/25 01:14:52;;;;;;;11.17;7.30;;;17.70;49.80;;;;;;4975760;28;20436;-88
2021/09/25 01:17:21;;;;;;;11.70;6.63;;;17.80;49.70;;;;;;4975411;28;20454;-88
2021/09/25 01:19:48;;;;;;;14.10;7.70;;;17.90;49.80;;;;;;4975346;28;20448;-88
2021/09/25 01:22:17;;;;;;;9.70;7.37;;;17.50;48.70;;;;;;4974805;28;20870;-87
2021/09/25 01:24:44;;;;;;;10.27;6.80;;;17.10;49.30;;;;;;4974860;28;20550;-88
2021/09/25 01:27:12;;;;;;;11.33;7.30;;;17.00;51.10;;;;;;4975375;28;20483;-88
2021/09/25 01:29:39;;;;;;;10.47;7.77;;;17.40;51.10;;;;;;4974419;28;20899;-88
2021/09/25 01:32:06;;;;;;;14.17;8.40;;;17.40;49.30;;;;;;4975292;28;20487;-88
2021/09/25 01:34:35;;;;;;;13.53;8.00;;;17.10;47.50;;;;;;4974889;28;20444;-88
2021/09/25 01:37:03;;;;;;;12.10;7.70;;;16.70;48.10;;;;;;4975547;28;20458;-88
2021/09/25 01:39:32;;;;;;;10.80;8.23;;;16.30;48.90;;;;;;4975867;28;20940;-88
2021/09/25 01:41:59;;;;;;;11.67;8.60;;;16.20;50.40;;;;;;4976047;28;20483;-87
2021/09/25 01:44:27;;;;;;;11.77;8.13;;;16.00;49.60;;;;;;4976911;28;20458;-87
2021/09/25 01:46:54;;;;;;;14.90;8.27;;;15.40;50.60;;;;;;4974690;28;20466;-88
2021/09/25 01:49:21;;;;;;;10.87;8.00;;;14.90;52.20;;;;;;4975202;28;20493;-88
2021/09/25 01:51:49;;;;;;;12.13;8.43;;;14.80;54.00;;;;;;4974681;28;20522;-88
2021/09/25 01:54:17;;;;;;;9.90;7.00;;;14.90;54.30;;;;;;4974839;28;20451;-88
2021/09/25 01:56:46;;;;;;;13.93;8.67;;;15.30;55.90;;;;;;4974861;28;20448;-88
2021/09/25 01:59:13;;;;;;;14.43;9.30;;;15.50;52.80;;;;;;4978811;28;20515;-87
2021/09/25 02:01:40;;;;;;;12.87;9.23;;;15.60;52.60;;;;;;4981863;28;20485;-87
2021/09/25 02:04:07;;;;;;;14.97;8.60;;;15.90;53.40;;;;;;4975917;28;20456;-87
2021/09/25 02:06:34;;;;;;;13.37;8.00;;;15.90;50.80;;;;;;4974699;28;20481;-87
2021/09/25 02:09:01;;;;;;;12.50;8.07;;;15.90;53.10;;;;;;4974728;28;20483;-87
2021/09/25 02:11:28;;;;;;;8.83;7.07;;;16.20;51.40;;;;;;4974569;28;20518;-88
2021/09/25 02:13:57;;;;;;;21.97;7.97;;;16.50;53.00;;;;;;4974633;28;20454;-88
2021/09/25 02:16:24;;;;;;;11.50;8.57;;;16.50;51.10;;;;;;4974048;28;20455;-88
2021/09/25 02:18:51;;;;;;;11.90;7.20;;;16.00;51.60;;;;;;4974699;28;20516;-87
2021/09/25 02:21:18;;;;;;;11.57;8.23;;;16.00;52.40;;;;;;4974500;28;20454;-87
2021/09/25 02:23:45;;;;;;;17.20;7.97;;;15.50;52.10;;;;;;4974902;28;20552;-88
2021/09/25 02:26:12;;;;;;;19.73;8.23;;;15.50;53.80;;;;;;4974918;28;20490;-88
2021/09/25 02:28:39;;;;;;;10.17;7.90;;;15.70;54.30;;;;;;4975147;28;20535;-88
2021/09/25 02:31:07;;;;;;;19.87;8.33;;;15.80;52.70;;;;;;4980739;28;20502;-88
2021/09/25 02:33:34;;;;;;;13.70;8.73;;;15.90;52.10;;;;;;4993979;28;20475;-88
2021/09/25 02:36:01;;;;;;;8.23;7.10;;;16.00;52.70;;;;;;4975432;28;20540;-88
2021/09/25 02:38:28;;;;;;;11.20;7.13;;;16.30;52.30;;;;;;4974428;28;20459;-88
2021/09/25 02:40:55;;;;;;;10.10;7.80;;;16.80;52.60;;;;;;4974223;28;21006;-88
2021/09/25 02:43:22;;;;;;;30.47;7.40;;;17.10;53.00;;;;;;4973920;28;20975;-88
2021/09/25 02:45:49;;;;;;;7.80;6.80;;;17.40;51.80;;;;;;4974638;28;20463;-88
2021/09/25 02:48:17;;;;;;;12.73;8.20;;;18.00;52.00;;;;;;4973574;28;20501;-88
2021/09/25 02:50:44;;;;;;;11.13;8.00;;;17.80;47.20;;;;;;4974304;28;20908;-88
2021/09/25 02:53:11;;;;;;;12.63;7.97;;;17.20;47.80;;;;;;4974194;28;20498;-87
2021/09/25 02:55:38;;;;;;;32.40;9.07;;;16.60;46.60;;;;;;4974513;28;20456;-87
2021/09/25 02:58:05;;;;;;;7.87;6.40;;;16.00;49.30;;;;;;4973737;28;20869;-88
2021/09/25 03:00:32;;;;;;;16.67;8.23;;;16.30;53.20;;;;;;4973869;28;20494;-88
2021/09/25 03:03:00;;;;;;;11.53;7.40;;;16.80;52.60;;;;;;4974713;28;20471;-87
2021/09/25 03:05:28;;;;;;;13.80;7.60;;;17.20;52.90;;;;;;4974143;28;20550;-88
2021/09/25 03:07:55;;;;;;;10.37;6.80;;;17.50;51.60;;;;;;4973042;28;20507;-88
2021/09/25 03:10:22;;;;;;;9.13;6.60;;;17.60;51.40;;;;;;4976966;28;20570;-88
2021/09/25 03:12:49;;;;;;;9.03;6.60;;;17.60;51.30;;;;;;4992837;28;20521;-88
2021/09/25 03:15:16;;;;;;;12.23;7.30;;;17.40;51.30;;;;;;4974542;28;20447;-88
2021/09/25 03:17:43;;;;;;;10.30;7.13;;;17.80;50.70;;;;;;4975007;28;20487;-88
2021/09/25 03:20:12;;;;;;;8.53;6.77;;;18.10;50.50;;;;;;4975445;28;20440;-88
2021/09/25 03:22:40;;;;;;;9.20;7.20;;;18.30;50.10;;;;;;4975818;28;20530;-88
2021/09/25 03:25:08;;;;;;;10.00;7.60;;;18.10;50.60;;;;;;4975475;28;20487;-88
2021/09/25 03:27:36;;;;;;;9.57;6.20;;;18.10;49.80;;;;;;4975202;28;20487;-88
2021/09/25 03:30:04;;;;;;;9.73;7.17;;;18.10;50.50;;;;;;4977089;28;20491;-88
2021/09/25 03:32:30;;;;;;;10.13;6.67;;;18.20;50.60;;;;;;4987883;28;20459;-88
2021/09/25 03:34:57;;;;;;;10.43;7.00;;;18.40;50.20;;;;;;4983450;28;20483;-88
2021/09/25 03:37:25;;;;;;;9.47;6.53;;;18.40;48.50;;;;;;4977969;28;20795;-88
2021/09/25 03:39:53;;;;;;;11.30;7.77;;;18.20;49.00;;;;;;4976965;28;20444;-88
2021/09/25 03:42:20;;;;;;;13.87;8.33;;;18.20;48.50;;;;;;4975060;28;20565;-88
2021/09/25 03:44:47;;;;;;;8.73;6.40;;;17.40;44.60;;;;;;4977134;28;20491;-88
2021/09/25 03:47:14;;;;;;;12.80;7.30;;;17.00;51.10;;;;;;4986784;28;20447;-88
2021/09/25 03:49:41;;;;;;;7.90;6.43;;;17.50;50.70;;;;;;4982108;28;20504;-88
2021/09/25 03:52:08;;;;;;;9.80;6.50;;;17.60;51.10;;;;;;4987677;28;20527;-88
2021/09/25 03:54:35;;;;;;;10.20;6.80;;;18.10;51.00;;;;;;4994335;28;20505;-88
2021/09/25 03:57:04;;;;;;;8.50;6.80;;;18.10;50.10;;;;;;4993877;28;20439;-88
2021/09/25 03:59:31;;;;;;;9.67;6.50;;;18.10;49.50;;;;;;4993611;28;20463;-88
2021/09/25 04:01:58;;;;;;;8.90;6.60;;;18.10;50.40;;;;;;4993276;28;20463;-88
2021/09/25 04:04:25;;;;;;;10.70;6.50;;;18.40;50.00;;;;;;4994296;28;20460;-88
2021/09/25 04:06:52;;;;;;;9.30;6.97;;;18.40;50.20;;;;;;4993182;28;20565;-88
2021/09/25 04:09:19;;;;;;;10.33;7.13;;;18.20;49.70;;;;;;4992472;28;20443;-88
2021/09/25 04:11:48;;;;;;;9.67;7.10;;;18.10;49.50;;;;;;4989976;28;20462;-88
2021/09/25 04:14:17;;;;;;;7.30;6.10;;;18.20;50.30;;;;;;4990013;28;20554;-88
2021/09/25 04:16:45;;;;;;;9.97;6.97;;;18.30;50.10;;;;;;4988405;28;20445;-88
2021/09/25 04:19:12;;;;;;;11.00;7.90;;;18.10;48.70;;;;;;4979999;28;20957;-88
2021/09/25 04:21:39;;;;;;;11.03;7.70;;;17.10;46.70;;;;;;4993752;28;20459;-88
2021/09/25 04:24:06;;;;;;;11.63;8.27;;;15.80;49.80;;;;;;4996685;28;20457;-88
2021/09/25 04:26:33;;;;;;;10.97;7.70;;;15.50;50.00;;;;;;4996750;28;20448;-88
2021/09/25 04:29:01;;;;;;;11.93;8.57;;;15.20;52.00;;;;;;4996154;28;20416;-88
2021/09/25 04:31:29;;;;;;;11.50;7.63;;;15.20;52.30;;;;;;4995197;28;20480;-87
2021/09/25 04:33:56;;;;;;;12.07;8.47;;;15.20;52.40;;;;;;4995560;28;20514;-87
2021/09/25 04:36:23;;;;;;;11.73;7.67;;;15.30;52.00;;;;;;4994693;28;20417;-88
2021/09/25 04:38:50;;;;;;;12.73;7.60;;;15.40;53.30;;;;;;4992256;28;20434;-88
2021/09/25 04:41:17;;;;;;;13.10;8.30;;;15.80;51.80;;;;;;4975194;28;20517;-87
2021/09/25 04:43:44;;;;;;;15.57;8.67;;;15.40;50.90;;;;;;4974942;28;20476;-87
2021/09/25 04:46:10;;;;;;;15.67;9.20;;;14.80;52.00;;;;;;4974870;28;20533;-87
2021/09/25 04:48:39;;;;;;;14.07;8.57;;;14.50;52.40;;;;;;4977088;28;20484;-88
2021/09/25 04:51:06;;;;;;;12.63;8.93;;;14.40;53.60;;;;;;4976624;28;20531;-88
2021/09/25 04:53:33;;;;;;;12.40;9.10;;;14.30;53.50;;;;;;4984095;28;20530;-88
2021/09/25 04:56:00;;;;;;;10.00;7.10;;;14.30;52.10;;;;;;4982010;28;20953;-87
2021/09/25 04:58:29;;;;;;;10.20;8.33;;;15.00;57.10;;;;;;4974495;28;20494;-88
2021/09/25 05:00:56;;;;;;;11.87;8.20;;;15.60;52.50;;;;;;4974612;28;20501;-88
2021/09/25 05:03:23;;;;;;;9.27;6.93;;;15.90;52.80;;;;;;4974092;28;20521;-88
2021/09/25 05:05:52;;;;;;;11.37;7.83;;;16.00;51.80;;;;;;4974326;28;20475;-88
2021/09/25 05:08:19;;;;;;;10.47;7.80;;;16.00;53.20;;;;;;4974283;28;20433;-88
2021/09/25 05:10:46;;;;;;;8.40;7.23;;;16.40;52.80;;;;;;4974426;28;20560;-88
2021/09/25 05:13:13;;;;;;;13.77;8.27;;;16.80;53.20;;;;;;4974171;28;20856;-88
2021/09/25 05:15:40;;;;;;;16.33;7.07;;;16.90;51.90;;;;;;4974394;28;20937;-88
2021/09/25 05:18:07;;;;;;;9.73;7.30;;;17.30;52.50;;;;;;4974334;28;20542;-88
2021/09/25 05:20:34;;;;;;;9.47;6.63;;;17.50;51.80;;;;;;4974437;28;20824;-88
2021/09/25 05:23:02;;;;;;;9.67;6.80;;;17.50;50.20;;;;;;4973553;28;20505;-88
2021/09/25 05:25:29;;;;;;;11.50;6.93;;;17.70;50.90;;;;;;4974151;28;20490;-88
2021/09/25 05:27:56;;;;;;;7.40;6.30;;;17.80;50.20;;;;;;4974279;28;20455;-88
2021/09/25 05:30:23;;;;;;;8.40;6.80;;;17.60;50.90;;;;;;4974018;28;20600;-88
2021/09/25 05:32:50;;;;;;;15.70;7.67;;;17.70;50.80;;;;;;4974359;28;20834;-87
2021/09/25 05:35:17;;;;;;;9.87;6.80;;;17.60;49.20;;;;;;4974222;28;20919;-87
2021/09/25 05:37:44;;;;;;;7.57;6.13;;;17.90;51.40;;;;;;4974582;28;20881;-88
2021/09/25 05:40:13;;;;;;;7.87;6.63;;;18.00;50.80;;;;;;4974279;28;20480;-88
2021/09/25 05:42:40;;;;;;;16.30;8.00;;;18.30;50.10;;;;;;4973829;28;20992;-88
2021/09/25 05:45:09;;;;;;;11.63;7.60;;;18.20;49.30;;;;;;4974533;28;20603;-88
2021/09/25 05:47:35;;;;;;;9.37;6.60;;;18.40;49.30;;;;;;4974232;28;20458;-88
2021/09/25 05:50:03;;;;;;;20.80;7.87;;;18.90;48.00;;;;;;4973663;28;21007;-87
2021/09/25 05:52:30;;;;;;;14.00;6.93;;;19.40;45.50;;;;;;4973585;28;20544;-87
2021/09/25 05:54:57;;;;;;;12.47;7.27;;;19.60;42.80;;;;;;4973388;28;20456;-88
2021/09/25 05:57:25;;;;;;;9.30;6.90;;;20.00;40.70;;;;;;4973248;28;20444;-88
2021/09/25 05:59:52;;;;;;;15.77;6.70;;;20.20;38.60;;;;;;4973452;28;20502;-88
2021/09/25 06:02:19;;;;;;;9.63;7.03;;;20.80;38.80;;;;;;4973618;28;20554;-88
2021/09/25 06:04:45;;;;;;;9.63;6.80;;;21.40;37.50;;;;;;4974187;28;20513;-88
2021/09/25 06:07:13;;;;;;;12.13;6.80;;;21.50;36.70;;;;;;4991988;28;20452;-88
2021/09/25 06:09:41;;;;;;;14.83;6.97;;;21.10;37.50;;;;;;4973556;28;20456;-88
2021/09/25 06:12:09;;;;;;;11.23;7.07;;;21.40;36.70;;;;;;4973198;28;21062;-88
2021/09/25 06:14:38;;;;;;;10.07;5.70;;;21.60;35.60;;;;;;4973152;28;20908;-88
2021/09/25 06:17:05;;;;;;;13.00;6.50;;;22.00;35.80;;;;;;4973155;28;20505;-88
2021/09/25 06:19:32;;;;;;;10.30;6.73;;;22.30;35.30;;;;;;4972864;28;20539;-88
2021/09/25 06:21:59;;;;;;;35.50;9.10;;;22.80;33.90;;;;;;4973435;28;20491;-88
2021/09/25 06:24:26;;;;;;;12.30;7.43;;;23.10;34.00;;;;;;4973460;28;20996;-89
2021/09/25 06:26:53;;;;;;;9.60;7.23;;;23.70;33.20;;;;;;4972845;28;20478;-88
2021/09/25 06:29:20;;;;;;;10.60;6.77;;;24.00;32.60;;;;;;4972608;28;20471;-88
2021/09/25 06:31:49;;;;;;;10.30;6.50;;;24.50;32.40;;;;;;4972494;28;20601;-88
2021/09/25 06:34:15;;;;;;;16.37;7.00;;;24.80;31.10;;;;;;4971640;28;20517;-88
2021/09/25 06:36:42;;;;;;;13.07;6.50;;;25.00;30.90;;;;;;4973105;28;20483;-88
2021/09/25 06:39:09;;;;;;;7.70;6.03;;;25.10;30.10;;;;;;4972645;28;20452;-88
2021/09/25 06:41:37;;;;;;;16.03;6.83;;;25.10;30.40;;;;;;4975104;28;20460;-88
2021/09/25 06:44:04;;;;;;;11.43;7.50;;;25.70;29.60;;;;;;4990400;28;20441;-88
2021/09/25 06:46:31;;;;;;;10.50;6.77;;;25.60;30.30;;;;;;4987693;28;20536;-88
2021/09/25 06:48:59;;;;;;;8.00;6.47;;;26.10;29.40;;;;;;4979283;28;20531;-88
2021/09/25 06:51:27;;;;;;;11.23;6.70;;;26.10;29.70;;;;;;4977020;28;20559;-88
2021/09/25 06:53:54;;;;;;;7.23;5.90;;;26.20;28.90;;;;;;4977209;28;20449;-88
2021/09/25 06:56:21;;;;;;;15.07;5.77;;;25.70;29.70;;;;;;4977990;28;20531;-88
2021/09/25 06:58:49;;;;;;;10.33;5.93;;;25.10;30.50;;;;;;4975640;28;20522;-88
2021/09/25 07:01:16;;;;;;;8.40;5.87;;;24.40;31.80;;;;;;4973482;28;20558;-88
2021/09/25 07:03:42;;;;;;;9.50;6.30;;;23.70;33.10;;;;;;4973106;28;20579;-88
2021/09/25 07:06:11;;;;;;;21.03;6.07;;;22.50;35.40;;;;;;4978620;28;20476;-88
2021/09/25 07:08:38;;;;;;;7.77;6.53;;;21.80;36.90;;;;;;4971943;28;20466;-88
2021/09/25 07:11:05;;;;;;;15.47;6.27;;;21.10;38.20;;;;;;4971832;28;21027;-88
2021/09/25 07:13:32;;;;;;;15.13;7.13;;;21.00;38.10;;;;;;4971784;28;20455;-87
2021/09/25 07:15:59;;;;;;;8.40;6.33;;;20.90;39.10;;;;;;4972228;28;20457;-88
2021/09/25 07:18:26;;;;;;;10.50;6.67;;;21.00;39.50;;;;;;4972179;28;20483;-88
2021/09/25 07:20:53;;;;;;;10.77;6.50;;;21.30;38.60;;;;;;4971741;28;20516;-88
2021/09/25 07:23:22;;;;;;;9.27;6.13;;;21.40;38.50;;;;;;4979736;28;20471;-88
2021/09/25 07:25:49;;;;;;;10.80;6.70;;;21.60;38.70;;;;;;4972262;28;20538;-88
2021/09/25 07:28:16;;;;;;;7.80;6.30;;;21.70;37.60;;;;;;4972176;28;20454;-88
2021/09/25 07:30:44;;;;;;;8.23;6.30;;;21.80;37.90;;;;;;4972387;28;20488;-88
2021/09/25 07:33:11;;;;;;;10.90;6.97;;;22.20;37.10;;;;;;4973034;28;20487;-88
2021/09/25 07:35:37;;;;;;;13.33;6.73;;;22.50;37.30;;;;;;4971777;28;20523;-88
2021/09/25 07:38:06;;;;;;;12.97;7.30;;;22.70;36.00;;;;;;4971815;28;20552;-88
2021/09/25 07:40:35;;;;;;;16.33;6.90;;;23.00;35.50;;;;;;4971799;28;20485;-88
2021/09/25 07:43:02;;;;;;;9.47;5.83;;;23.70;34.80;;;;;;4972082;28;20533;-88
2021/09/25 07:45:29;;;;;;;10.93;5.80;;;24.00;33.40;;;;;;4974570;28;20509;-88
2021/09/25 07:47:57;;;;;;;8.30;6.13;;;24.60;33.10;;;;;;4976138;28;20464;-88
2021/09/25 07:50:24;;;;;;;7.43;5.80;;;24.60;32.60;;;;;;4973918;28;20455;-88
2021/09/25 07:52:55;;;;;;;9.97;6.33;;;25.30;32.10;;;;;;4973821;28;20557;-88
2021/09/25 07:55:23;;;;;;;8.67;6.37;;;25.70;31.50;;;;;;4972150;28;20444;-89
2021/09/25 07:57:51;;;;;;;8.13;6.43;;;25.70;31.20;;;;;;4973184;28;20466;-89
2021/09/25 08:00:19;;;;;;;7.50;5.93;;;26.00;30.50;;;;;;4973259;28;21035;-88
2021/09/25 08:02:46;;;;;;;10.83;6.63;;;26.40;30.30;;;;;;4972278;28;20463;-88
2021/09/25 08:05:16;;;;;;;11.17;6.63;;;26.90;29.30;;;;;;4971346;28;20536;-89
2021/09/25 08:07:47;;;;;;;10.33;5.70;;;27.50;28.90;;;;;;4974927;28;20544;-88
2021/09/25 08:10:20;;;;;;;10.23;6.20;;;27.20;29.90;;;;;;4976091;28;20537;-88
2021/09/25 08:12:47;;;;;;;10.50;6.03;;;27.30;28.70;;;;;;4973309;28;20570;-89
2021/09/25 08:15:16;;;;;;;9.50;6.90;;;27.10;29.30;;;;;;4973003;28;20801;-88
2021/09/25 08:17:45;;;;;;;8.70;6.70;;;26.70;29.80;;;;;;4972980;28;20470;-88
2021/09/25 08:20:14;;;;;;;8.23;5.90;;;25.90;31.00;;;;;;4972209;28;20456;-88
2021/09/25 08:22:42;;;;;;;11.70;6.40;;;25.60;31.20;;;;;;4972030;28;20475;-88
2021/09/25 08:25:10;;;;;;;9.77;6.33;;;25.50;31.90;;;;;;4972452;28;20466;-89
2021/09/25 08:27:37;;;;;;;10.67;6.70;;;25.90;31.00;;;;;;4973111;28;20460;-88
2021/09/25 08:30:05;;;;;;;9.67;6.23;;;26.30;30.80;;;;;;4972745;28;20539;-88
2021/09/25 08:32:44;;;;;;;11.10;6.50;;;26.00;30.90;;;;;;4972946;28;20621;-89
2021/09/25 08:35:11;;;;;;;13.00;6.90;;;25.80;30.80;;;;;;4972915;28;20486;-88
2021/09/25 08:37:39;;;;;;;9.67;5.83;;;25.70;31.40;;;;;;4974050;28;20800;-89
2021/09/25 08:40:14;;;;;;;8.50;6.17;;;25.70;31.10;;;;;;4973817;28;20460;-88
2021/09/25 08:42:42;;;;;;;8.30;6.67;;;25.30;32.10;;;;;;4973698;28;20881;-88
2021/09/25 08:45:11;;;;;;;12.20;5.40;;;25.10;32.70;;;;;;4972429;28;20447;-89
2021/09/25 08:47:46;;;;;;;11.07;6.87;;;24.80;33.50;;;;;;4972722;28;20456;-89
2021/09/25 08:50:15;;;;;;;10.60;6.13;;;24.60;33.60;;;;;;4973134;28;20444;-88
2021/09/25 08:52:43;;;;;;;8.00;5.20;;;24.30;34.00;;;;;;4971392;28;20565;-89
2021/09/25 08:55:12;;;;;;;8.43;6.17;;;24.30;35.00;;;;;;4970527;28;20978;-89
2021/09/25 08:57:40;;;;;;;7.73;5.43;;;24.20;34.00;;;;;;4972383;28;20627;-88
2021/09/25 09:00:42;;;;;;;8.00;5.90;;;24.10;34.90;;;;;;4974168;28;20436;-88
2021/09/25 09:03:32;;;;;;;7.60;5.70;;;24.30;34.20;;;;;;4933384;29;20488;-89
2021/09/25 09:06:15;;;;;;;9.70;6.10;;;24.30;34.30;;;;;;4972491;28;20505;-88
2021/09/25 09:08:44;;;;;;;9.13;5.50;;;24.30;33.70;;;;;;4973861;28;20416;-88
2021/09/25 09:11:12;;;;;;;6.33;4.93;;;24.00;34.40;;;;;;4974121;28;20499;-88
2021/09/25 09:13:40;;;;;;;10.50;5.80;;;24.30;34.70;;;;;;4973620;28;20464;-88
2021/09/25 09:16:08;;;;;;;12.13;6.83;;;24.50;34.90;;;;;;4973682;28;20471;-88
2021/09/25 09:18:39;;;;;;;8.47;5.57;;;24.80;34.70;;;;;;4973617;28;20941;-88
2021/09/25 09:21:09;;;;;;;7.63;5.20;;;25.20;33.40;;;;;;4973513;28;20980;-88
2021/09/25 09:23:38;;;;;;;7.37;5.60;;;25.20;33.80;;;;;;4973905;28;20478;-88
2021/09/25 09:26:07;;;;;;;6.83;5.73;;;25.20;33.60;;;;;;4973964;28;20858;-88
2021/09/25 09:28:39;;;;;;;11.03;5.40;;;25.30;33.60;;;;;;4973737;28;20863;-87
2021/09/25 09:31:07;;;;;;;9.17;5.50;;;25.20;33.70;;;;;;4973437;28;20874;-88
2021/09/25 09:33:38;;;;;;;12.67;6.07;;;25.40;33.70;;;;;;4973590;28;20555;-88
2021/09/25 09:36:14;;;;;;;11.23;5.97;;;25.40;33.00;;;;;;4973713;28;20413;-88
2021/09/25 09:38:41;;;;;;;8.73;6.20;;;25.30;32.90;;;;;;4973331;28;21003;-87
2021/09/25 09:41:09;;;;;;;21.50;13.40;;;25.00;34.30;;;;;;4973314;28;20475;-88
2021/09/25 09:43:36;;;;;;;14.40;6.17;;;24.90;34.20;;;;;;4973546;28;20468;-88
2021/09/25 09:46:04;;;;;;;6.23;5.53;;;25.00;34.20;;;;;;4973808;28;20444;-88
2021/09/25 09:48:31;;;;;;;9.97;5.80;;;25.00;34.20;;;;;;4973635;28;20452;-88
2021/09/25 09:50:59;;;;;;;8.50;5.23;;;25.00;34.50;;;;;;4973100;28;20535;-88
2021/09/25 09:53:30;;;;;;;8.23;4.63;;;25.20;34.40;;;;;;4973196;28;20524;-88
2021/09/25 09:56:18;;;;;;;10.10;5.60;;;25.00;35.00;;;;;;4973690;28;20454;-88
2021/09/25 09:58:55;;;;;;;8.20;6.37;;;25.20;34.40;;;;;;4973356;28;20478;-88
2021/09/25 10:01:22;;;;;;;9.40;5.73;;;25.40;34.60;;;;;;4973303;28;20996;-88
2021/09/25 10:03:50;;;;;;;9.73;5.40;;;25.60;34.10;;;;;;4973878;28;20551;-88
2021/09/25 10:06:19;;;;;;;10.60;6.23;;;25.30;34.50;;;;;;4974132;28;20536;-88
2021/09/25 10:08:46;;;;;;;7.57;6.17;;;25.50;34.60;;;;;;4973875;28;20444;-88
2021/09/25 10:11:15;;;;;;;7.87;5.20;;;25.20;34.40;;;;;;4972959;28;20489;-88
2021/09/25 10:13:44;;;;;;;8.80;5.63;;;25.20;34.60;;;;;;4972983;28;20468;-88
2021/09/25 10:16:13;;;;;;;6.60;5.10;;;25.50;34.70;;;;;;4973059;28;20517;-88
2021/09/25 10:18:41;;;;;;;10.53;6.30;;;25.90;33.80;;;;;;4973162;28;20535;-88
2021/09/25 10:21:11;;;;;;;9.23;5.80;;;25.90;34.30;;;;;;4993036;28;20425;-88
2021/09/25 10:23:45;;;;;;;13.53;5.57;;;25.80;34.40;;;;;;4980980;28;20488;-89
2021/09/25 10:26:15;;;;;;;24.47;7.00;;;25.80;34.00;;;;;;4973050;28;20467;-89
2021/09/25 10:28:42;;;;;;;14.33;6.70;;;26.10;34.50;;;;;;4973076;28;20514;-88
2021/09/25 10:31:17;;;;;;;15.53;6.30;;;26.20;33.90;;;;;;4972380;28;20865;-89
2021/09/25 10:34:08;;;;;;;9.77;5.83;;;26.00;33.90;;;;;;4972804;28;20469;-88
2021/09/25 10:36:51;;;;;;;8.00;5.80;;;26.10;33.90;;;;;;4973229;28;20436;-88
2021/09/25 10:39:25;;;;;;;9.00;5.60;;;26.00;33.70;;;;;;4974416;28;20952;-88
2021/09/25 10:42:00;;;;;;;5.80;5.43;;;25.70;34.10;;;;;;4974773;28;20476;-88
2021/09/25 10:44:29;;;;;;;9.10;5.40;;;25.80;34.10;;;;;;4973514;28;20913;-88
2021/09/25 10:47:18;;;;;;;6.30;5.40;;;25.90;33.90;;;;;;4972173;28;20448;-88
2021/09/25 10:49:54;;;;;;;15.47;5.40;;;25.90;33.50;;;;;;4972100;28;20459;-88
2021/09/25 10:52:24;;;;;;;6.90;4.90;;;26.10;33.40;;;;;;4972262;28;20590;-88
2021/09/25 10:55:26;;;;;;;6.73;5.13;;;25.90;33.40;;;;;;4972398;28;20896;-88
2021/09/25 10:58:33;;;;;;;10.90;7.00;;;26.10;33.40;;;;;;4972440;28;20478;-88
2021/09/25 11:01:08;;;;;;;10.30;5.20;;;26.30;33.70;;;;;;4953144;29;20463;-88
2021/09/25 11:03:57;;;;;;;12.03;5.83;;;25.90;34.90;;;;;;4934190;29;20570;-88
2021/09/25 11:06:27;;;;;;;13.10;6.27;;;26.20;34.30;;;;;;4924311;29;20466;-88
2021/09/25 11:08:56;;;;;;;9.07;6.03;;;26.30;33.50;;;;;;4931843;29;20430;-88
2021/09/25 11:11:35;;;;;;;19.30;10.70;;;26.70;33.10;;;;;;4931589;29;20453;-88
2021/09/25 11:14:21;;;;;;;15.67;9.03;;;26.80;33.20;;;;;;4931671;29;20415;-89
2021/09/25 11:16:54;;;;;;;6.50;5.30;;;27.10;33.00;;;;;;4931227;29;20513;-89
2021/09/25 11:19:39;;;;;;;5.97;5.03;;;27.10;32.80;;;;;;4930741;29;20927;-88
2021/09/25 11:22:10;;;;;;;5.43;4.40;;;26.70;33.80;;;;;;4932419;29;20497;-89
2021/09/25 11:24:39;;;;;;;9.90;4.90;;;26.70;33.60;;;;;;4932034;29;21035;-89
2021/09/25 11:27:12;;;;;;;6.87;4.93;;;27.00;33.40;;;;;;4932330;29;20453;-89
2021/09/25 11:30:00;;;;;;;6.70;5.10;;;27.10;33.00;;;;;;4931193;29;20473;-88
2021/09/25 11:32:31;;;;;;;5.43;4.70;;;27.00;33.40;;;;;;4962009;28;20564;-89
2021/09/25 11:34:59;;;;;;;5.63;4.53;;;27.30;33.20;;;;;;4972534;28;20458;-89
2021/09/25 11:37:30;;;;;;;8.13;4.83;;;27.40;33.00;;;;;;4971698;28;20458;-89
2021/09/25 11:39:59;;;;;;;5.90;4.93;;;27.60;32.60;;;;;;4987553;28;20507;-89
2021/09/25 11:42:29;;;;;;;6.40;5.03;;;27.60;32.30;;;;;;4985392;28;21016;-89
2021/09/25 11:44:59;;;;;;;11.90;5.00;;;27.30;32.70;;;;;;4971836;28;20436;-89
2021/09/25 11:47:34;;;;;;;6.10;4.80;;;27.10;32.80;;;;;;4972637;28;20456;-89
2021/09/25 11:50:13;;;;;;;11.87;5.07;;;27.20;33.20;;;;;;4972458;28;20444;-89
2021/09/25 11:52:41;;;;;;;10.77;5.20;;;27.50;32.00;;;;;;4971391;28;20836;-88
2021/09/25 11:55:09;;;;;;;7.50;5.20;;;27.60;32.10;;;;;;4971356;28;20957;-89
2021/09/25 11:57:38;;;;;;;5.53;4.50;;;27.80;32.00;;;;;;4971434;28;20452;-89
2021/09/25 12:00:27;;;;;;;5.33;4.60;;;27.80;32.00;;;;;;4972233;28;20451;-89
2021/09/25 12:02:55;;;;;;;6.60;5.17;;;27.70;32.20;;;;;;4971200;28;20486;-89
2021/09/25 12:05:28;;;;;;;5.70;4.70;;;27.70;32.30;;;;;;4971651;28;20462;-89
2021/09/25 12:07:56;;;;;;;5.33;4.30;;;27.80;31.10;;;;;;4971629;28;20456;-89
2021/09/25 12:10:25;;;;;;;4.87;4.40;;;27.80;30.80;;;;;;4971332;28;20444;-89
2021/09/25 12:13:02;;;;;;;8.10;4.00;;;27.90;31.30;;;;;;4971209;28;20480;-89
2021/09/25 12:15:32;;;;;;;15.00;5.17;;;28.20;30.70;;;;;;4971202;28;20427;-89
2021/09/25 12:18:29;;;;;;;4.57;4.30;;;28.40;29.80;;;;;;4971873;28;20452;-89
2021/09/25 12:20:58;;;;;;;10.10;4.50;;;28.50;29.50;;;;;;4970757;28;20444;-89
2021/09/25 12:23:30;;;;;;;5.60;3.80;;;28.60;29.50;;;;;;4971231;28;20464;-89
2021/09/25 12:25:58;;;;;;;6.00;3.87;;;28.70;29.40;;;;;;4972305;28;20444;-89
2021/09/25 12:28:45;;;;;;;6.60;4.27;;;28.80;29.60;;;;;;4971835;28;20452;-89
2021/09/25 12:31:18;;;;;;;6.40;4.40;;;28.70;29.30;;;;;;4991054;28;20423;-89
2021/09/25 12:33:53;;;;;;;5.87;3.50;;;28.60;29.40;;;;;;4995103;28;20483;-89
2021/09/25 12:36:22;;;;;;;4.67;3.97;;;28.50;29.40;;;;;;4994543;28;20447;-89
2021/09/25 12:38:55;;;;;;;6.07;3.73;;;28.60;29.40;;;;;;4992283;28;20455;-89
2021/09/25 12:41:24;;;;;;;5.13;3.70;;;28.60;29.00;;;;;;4990604;28;20443;-89
2021/09/25 12:43:58;;;;;;;3.77;3.57;;;28.70;29.40;;;;;;4991710;28;20542;-89
2021/09/25 12:46:27;;;;;;;4.40;3.57;;;28.80;29.00;;;;;;4987367;28;20464;-89
2021/09/25 12:49:10;;;;;;;6.13;3.50;;;29.00;28.70;;;;;;4989108;28;20463;-88
2021/09/25 12:51:44;;;;;;;6.07;3.33;;;29.00;28.20;;;;;;4983670;28;20435;-89